createdAt,value
2023-02-14T10:22:43.402Z,98.01
2023-02-14T10:29:18.182Z,97.50
2023-02-14T10:32:28.520Z,95.85
2023-02-14T10:35:42.898Z,96.09
2023-02-14T10:38:52.744Z,95.11
2023-02-14T10:42:01.340Z,93.27
2023-02-14T10:45:16.387Z,95.10
2023-02-14T10:48:26.233Z,96.73
2023-02-14T10:51:36.702Z,96.56
2023-02-14T10:54:41.167Z,95.91
2023-02-14T10:57:53.586Z,96.74
2023-02-14T11:01:06.803Z,94.58
2023-02-14T11:04:13.258Z,92.37
2023-02-14T11:07:17.317Z,91.97
2023-02-14T11:10:24.260Z,92.75
2023-02-14T11:13:34.967Z,92.56
2023-02-14T11:16:44.270Z,93.11
2023-02-14T11:19:58.762Z,92.71
2023-02-14T11:23:01.508Z,92.91
2023-02-14T11:26:06.634Z,93.79
2023-02-14T11:29:15.765Z,92.91
2023-02-14T11:32:25.710Z,91.75
2023-02-14T11:35:34.664Z,91.61
2023-02-14T11:38:40.140Z,91.06
2023-02-14T11:41:51.086Z,91.57
2023-02-14T11:44:56.213Z,91.54
2023-02-14T11:48:19.994Z,92.66
2023-02-14T11:51:34.535Z,92.68
2023-02-14T11:54:38.509Z,93.21
2023-02-14T11:57:41.286Z,93.46
2023-02-14T12:00:52.715Z,91.15
2023-02-14T12:04:00.713Z,91.00
2023-02-14T12:07:18.175Z,89.55
2023-02-14T12:10:25.006Z,89.00
2023-02-14T12:13:27.633Z,89.76
2023-02-14T12:16:36.159Z,88.60
2023-02-14T12:19:46.673Z,90.36
2023-02-14T12:22:56.106Z,88.16
2023-02-14T12:26:04.046Z,89.05
2023-02-14T12:29:13.521Z,89.62
2023-02-14T12:32:22.266Z,89.88
2023-02-14T12:35:43.676Z,88.57
2023-02-14T12:38:56.764Z,88.56
2023-02-14T12:42:07.973Z,87.98
2023-02-14T12:45:18.338Z,86.41
2023-02-14T12:48:28.308Z,87.53
2023-02-14T12:51:43.359Z,87.97
2023-02-14T12:54:58.439Z,87.17
2023-02-14T12:58:06.593Z,88.96
2023-02-14T13:01:38.552Z,89.88
2023-02-14T13:04:53.959Z,89.12
2023-02-14T13:08:15.643Z,88.92
2023-02-14T13:11:29.159Z,89.07
2023-02-14T13:14:49.456Z,88.65
2023-02-14T13:17:57.770Z,88.86
2023-02-14T13:21:03.985Z,88.12
2023-02-14T13:24:16.356Z,88.28
2023-02-14T13:27:23.196Z,90.71
2023-02-14T13:30:32.535Z,88.37
2023-02-14T13:33:38.253Z,90.47
2023-02-14T13:36:42.379Z,90.11
2023-02-14T13:39:50.085Z,89.79
2023-02-14T13:42:55.264Z,90.36
2023-02-14T13:45:57.777Z,90.95
2023-02-14T13:49:02.663Z,91.85
2023-02-14T13:52:07.322Z,91.68
2023-02-14T13:55:18.789Z,92.10
2023-02-14T13:58:22.018Z,91.64
2023-02-14T14:01:36.217Z,92.77
2023-02-14T14:04:38.975Z,92.75
2023-02-14T14:07:41.462Z,93.62
2023-02-14T14:10:47.564Z,94.06
2023-02-14T14:13:58.074Z,94.56
2023-02-14T14:17:02.310Z,94.32
2023-02-14T14:20:38.944Z,94.89
2023-02-14T14:23:45.601Z,94.80
2023-02-14T14:26:50.075Z,96.25
2023-02-14T14:29:55.518Z,95.37
